createdAt,value
2023-04-09T00:00:16.606Z,8.40
2023-04-09T00:02:43.387Z,8.40
2023-04-09T00:05:10.315Z,8.40
2023-04-09T00:07:36.973Z,8.40
2023-04-09T00:10:03.945Z,8.40
2023-04-09T00:12:30.663Z,8.40
2023-04-09T00:14:57.691Z,8.30
2023-04-09T00:17:24.635Z,8.30
2023-04-09T00:19:52.174Z,8.30
2023-04-09T00:22:18.964Z,8.30
2023-04-09T00:24:45.655Z,8.30
2023-04-09T00:27:12.397Z,8.30
2023-04-09T00:29:39.092Z,8.30
2023-04-09T00:32:06.220Z,8.30
2023-04-09T00:34:33.163Z,8.30
2023-04-09T00:36:59.893Z,8.40
2023-04-09T00:39:26.547Z,8.40
2023-04-09T00:41:57.981Z,8.30
2023-04-09T00:44:25.454Z,8.30
2023-04-09T00:46:53.987Z,8.30
2023-04-09T00:49:21.303Z,8.30
2023-04-09T00:51:48.790Z,8.30
2023-04-09T00:54:16.204Z,8.20
2023-04-09T00:56:43.910Z,8.30
2023-04-09T00:59:11.073Z,8.20
2023-04-09T01:01:37.876Z,8.20
2023-04-09T01:04:05.382Z,8.20
2023-04-09T01:06:37.964Z,8.20
2023-04-09T01:09:33.519Z,8.10
2023-04-09T01:12:18.132Z,8.20
2023-04-09T01:15:17.894Z,8.10
2023-04-09T01:17:50.199Z,8.10
2023-04-09T01:20:48.005Z,8.00
2023-04-09T01:23:36.159Z,7.90
2023-04-09T01:26:23.587Z,7.80
2023-04-09T01:28:54.744Z,7.70
2023-04-09T01:31:28.254Z,7.60
2023-04-09T01:33:55.560Z,7.70
2023-04-09T01:36:24.406Z,7.80
2023-04-09T01:38:52.726Z,7.80
2023-04-09T01:41:21.804Z,7.80
2023-04-09T01:43:52.932Z,7.80
2023-04-09T01:46:20.995Z,7.80
2023-04-09T01:48:48.656Z,7.80
2023-04-09T01:51:16.628Z,7.80
2023-04-09T01:53:43.409Z,7.90
2023-04-09T01:56:10.393Z,7.90
2023-04-09T01:58:37.095Z,8.00
2023-04-09T02:01:11.898Z,7.90
2023-04-09T02:03:46.482Z,7.90
2023-04-09T02:06:27.693Z,7.90
2023-04-09T02:08:55.354Z,8.00
2023-04-09T02:11:24.821Z,8.00
2023-04-09T02:13:54.316Z,8.00
2023-04-09T02:16:21.949Z,8.00
2023-04-09T02:19:01.361Z,7.90
2023-04-09T02:21:29.603Z,8.00
2023-04-09T02:23:56.494Z,7.90
2023-04-09T02:26:24.376Z,8.00
2023-04-09T02:28:51.403Z,8.00
2023-04-09T02:31:18.328Z,8.00
2023-04-09T02:33:45.129Z,8.00
2023-04-09T02:36:13.162Z,8.00
2023-04-09T02:38:42.981Z,8.00
2023-04-09T02:41:10.139Z,8.00
2023-04-09T02:43:37.406Z,8.00
2023-04-09T02:46:04.825Z,8.00
2023-04-09T02:48:31.585Z,8.00
2023-04-09T02:50:58.353Z,8.00
2023-04-09T02:53:25.896Z,8.00
2023-04-09T02:55:52.669Z,8.00
2023-04-09T02:58:19.381Z,7.90
2023-04-09T03:00:45.982Z,7.90
2023-04-09T03:03:12.914Z,7.90
2023-04-09T03:05:39.901Z,7.90
2023-04-09T03:08:06.615Z,8.00
2023-04-09T03:10:33.257Z,7.90
2023-04-09T03:12:59.957Z,7.90
2023-04-09T03:15:26.723Z,7.90
2023-04-09T03:17:53.406Z,7.90
2023-04-09T03:20:20.098Z,7.90
2023-04-09T03:22:46.818Z,7.80
2023-04-09T03:25:13.509Z,7.90
2023-04-09T03:27:40.221Z,7.90
2023-04-09T03:30:07.500Z,7.90
2023-04-09T03:32:34.228Z,7.90
2023-04-09T03:35:00.876Z,7.80
2023-04-09T03:37:27.533Z,7.80
2023-04-09T03:39:54.229Z,7.80
2023-04-09T03:42:20.910Z,7.80
2023-04-09T03:44:47.627Z,7.80
2023-04-09T03:47:14.353Z,7.90
2023-04-09T03:49:40.965Z,7.90
2023-04-09T03:52:07.618Z,7.90
2023-04-09T03:54:34.303Z,7.90
2023-04-09T03:57:01.416Z,7.90
2023-04-09T03:59:28.098Z,7.80
2023-04-09T04:01:54.809Z,7.80
2023-04-09T04:04:23.691Z,7.80
2023-04-09T04:06:50.897Z,7.80
2023-04-09T04:09:17.731Z,7.80
2023-04-09T04:11:44.512Z,7.80
2023-04-09T04:14:11.133Z,7.80
2023-04-09T04:16:37.827Z,7.90
2023-04-09T04:19:04.481Z,7.90
2023-04-09T04:21:31.479Z,7.80
2023-04-09T04:23:58.184Z,7.90
2023-04-09T04:26:24.898Z,7.90
2023-04-09T04:28:51.749Z,7.90
2023-04-09T04:31:18.555Z,7.90
2023-04-09T04:33:45.360Z,7.90
2023-04-09T04:36:13.927Z,8.10
2023-04-09T04:38:41.646Z,7.90
2023-04-09T04:41:08.611Z,7.90
2023-04-09T04:43:35.356Z,7.90
2023-04-09T04:46:02.155Z,7.90
2023-04-09T04:48:29.336Z,7.80
2023-04-09T04:51:00.759Z,7.80
2023-04-09T04:53:27.661Z,7.80
2023-04-09T04:55:54.329Z,7.80
2023-04-09T04:58:21.077Z,7.80
2023-04-09T05:00:48.007Z,7.80
2023-04-09T05:03:15.442Z,7.80
2023-04-09T05:05:42.326Z,7.80
2023-04-09T05:08:08.981Z,7.70
2023-04-09T05:10:35.934Z,7.80
2023-04-09T05:13:02.624Z,7.80
2023-04-09T05:15:29.335Z,7.80
2023-04-09T05:17:56.316Z,7.80
2023-04-09T05:20:23.093Z,7.70
2023-04-09T05:22:49.842Z,7.80
2023-04-09T05:25:16.682Z,7.80
2023-04-09T05:27:43.452Z,7.80
2023-04-09T05:30:10.793Z,7.80
2023-04-09T05:32:38.038Z,7.90
2023-04-09T05:35:05.439Z,7.90
2023-04-09T05:37:32.262Z,7.90
2023-04-09T05:39:59.067Z,7.90
2023-04-09T05:42:25.979Z,7.90
2023-04-09T05:44:52.684Z,7.90
2023-04-09T05:47:19.327Z,8.00
2023-04-09T05:49:46.555Z,8.00
2023-04-09T05:52:13.409Z,7.90
2023-04-09T05:54:40.139Z,8.00
2023-04-09T05:57:06.926Z,8.00
2023-04-09T05:59:33.942Z,8.10
2023-04-09T06:02:00.737Z,8.10
2023-04-09T06:04:27.378Z,8.20
2023-04-09T06:06:54.021Z,8.30
2023-04-09T06:09:20.835Z,8.50
2023-04-09T06:11:47.474Z,8.80
2023-04-09T06:14:17.966Z,9.10
2023-04-09T06:16:44.733Z,9.20
2023-04-09T06:19:12.403Z,9.40
2023-04-09T06:21:40.675Z,9.60
2023-04-09T06:24:07.487Z,10.20
2023-04-09T06:26:34.163Z,10.40
2023-04-09T06:29:00.841Z,10.90
2023-04-09T06:31:27.571Z,11.10
2023-04-09T06:33:54.960Z,11.20
2023-04-09T06:36:21.964Z,11.40
2023-04-09T06:38:48.623Z,11.60
2023-04-09T06:41:15.422Z,11.30
2023-04-09T06:43:42.295Z,11.60
2023-04-09T06:46:09.396Z,11.80
2023-04-09T06:48:36.479Z,11.90
2023-04-09T06:51:03.265Z,11.40
2023-04-09T06:53:30.029Z,11.20
2023-04-09T06:55:57.272Z,11.00
2023-04-09T06:58:24.346Z,10.80
2023-04-09T07:00:51.128Z,10.40
2023-04-09T07:03:18.017Z,10.40
2023-04-09T07:05:44.852Z,10.30
2023-04-09T07:08:11.836Z,10.10
2023-04-09T07:10:38.693Z,10.10
2023-04-09T07:13:05.456Z,9.90
2023-04-09T07:15:32.288Z,9.90
2023-04-09T07:17:59.555Z,9.70
2023-04-09T07:20:26.344Z,9.90
2023-04-09T07:22:54.208Z,9.90
2023-04-09T07:25:21.432Z,9.80
2023-04-09T07:27:48.171Z,10.00
2023-04-09T07:30:14.822Z,10.40
2023-04-09T07:32:41.503Z,10.70
2023-04-09T07:35:09.766Z,10.80
2023-04-09T07:37:36.729Z,11.00
2023-04-09T07:40:04.077Z,10.80
2023-04-09T07:42:31.005Z,10.90
2023-04-09T07:44:57.760Z,11.00
2023-04-09T07:47:24.569Z,11.20
2023-04-09T07:49:51.504Z,11.70
2023-04-09T07:52:19.550Z,12.00
2023-04-09T07:54:46.193Z,11.80
2023-04-09T07:57:12.868Z,12.00
2023-04-09T07:59:39.564Z,12.40
2023-04-09T08:02:07.106Z,12.90
2023-04-09T08:04:34.237Z,13.00
2023-04-09T08:07:00.953Z,12.80
2023-04-09T08:09:27.622Z,12.90
2023-04-09T08:11:54.325Z,13.30
2023-04-09T08:14:21.353Z,14.10
2023-04-09T08:16:50.019Z,14.60
2023-04-09T08:19:17.728Z,14.60
2023-04-09T08:21:44.686Z,15.60
2023-04-09T08:24:12.435Z,16.00
2023-04-09T08:26:40.510Z,15.70
2023-04-09T08:29:08.012Z,16.60
2023-04-09T08:31:35.205Z,17.30
2023-04-09T08:34:01.991Z,17.60
2023-04-09T08:36:28.895Z,17.20
2023-04-09T08:38:56.619Z,16.90
2023-04-09T08:41:25.499Z,17.60
2023-04-09T08:43:58.310Z,17.80
2023-04-09T08:46:27.152Z,17.50
2023-04-09T08:48:54.221Z,17.70
2023-04-09T08:51:23.963Z,17.30
2023-04-09T08:53:57.307Z,17.50
2023-04-09T08:56:24.342Z,17.50
2023-04-09T08:58:51.623Z,17.80
2023-04-09T09:01:29.913Z,17.50
2023-04-09T09:04:05.478Z,17.00
2023-04-09T09:06:34.184Z,17.50
2023-04-09T09:09:05.470Z,17.70
2023-04-09T09:11:33.613Z,17.40
2023-04-09T09:14:01.995Z,17.40
2023-04-09T09:16:28.834Z,17.90
2023-04-09T09:18:58.636Z,18.40
2023-04-09T09:21:27.217Z,18.30
2023-04-09T09:23:54.230Z,18.50
2023-04-09T09:26:30.712Z,19.10
2023-04-09T09:29:01.190Z,18.80
2023-04-09T09:31:28.206Z,18.90
2023-04-09T09:33:55.073Z,18.50
2023-04-09T09:36:35.088Z,18.70
2023-04-09T09:39:05.189Z,17.40
2023-04-09T09:41:31.861Z,17.90
2023-04-09T09:43:58.623Z,18.60
2023-04-09T09:46:26.618Z,17.60
2023-04-09T09:48:53.803Z,17.70
2023-04-09T09:51:25.138Z,18.10
2023-04-09T09:53:54.429Z,18.50
2023-04-09T09:56:25.335Z,18.80
2023-04-09T09:59:00.445Z,19.40
2023-04-09T10:01:28.341Z,20.00
2023-04-09T10:03:56.974Z,20.10
2023-04-09T10:06:24.372Z,19.60
2023-04-09T10:08:52.576Z,19.70
2023-04-09T10:11:20.857Z,19.70
2023-04-09T10:13:51.532Z,20.10
2023-04-09T10:16:19.298Z,20.30
2023-04-09T10:18:46.083Z,20.10
2023-04-09T10:21:23.933Z,18.50
2023-04-09T10:23:51.795Z,19.30
2023-04-09T10:26:19.568Z,19.70
2023-04-09T10:28:46.513Z,19.80
2023-04-09T10:31:14.413Z,19.40
2023-04-09T10:33:44.094Z,19.40
2023-04-09T10:36:12.713Z,19.90
2023-04-09T10:38:41.978Z,20.10
2023-04-09T10:41:22.406Z,20.40
2023-04-09T10:43:49.492Z,20.20
2023-04-09T10:46:36.783Z,18.80
2023-04-09T10:49:16.894Z,18.80
2023-04-09T10:51:50.839Z,19.20
2023-04-09T10:54:35.641Z,18.80
2023-04-09T10:57:08.148Z,17.80
2023-04-09T10:59:42.324Z,18.00
2023-04-09T11:02:18.047Z,18.20
2023-04-09T11:05:23.435Z,18.30
2023-04-09T11:07:53.335Z,18.40
2023-04-09T11:10:21.579Z,18.90
2023-04-09T11:12:49.102Z,18.80
2023-04-09T11:15:17.764Z,17.80
2023-04-09T11:17:45.934Z,17.40
2023-04-09T11:20:14.617Z,17.50
2023-04-09T11:22:41.399Z,17.50
2023-04-09T11:25:08.595Z,17.90
2023-04-09T11:27:39.127Z,18.00
2023-04-09T11:30:06.626Z,17.70
2023-04-09T11:32:33.616Z,17.50
2023-04-09T11:35:00.319Z,17.50
2023-04-09T11:37:27.152Z,17.40
2023-04-09T11:39:57.329Z,17.40
2023-04-09T11:42:25.803Z,17.30
2023-04-09T11:44:53.408Z,17.10
2023-04-09T11:47:21.020Z,16.70
2023-04-09T11:49:47.804Z,17.10
2023-04-09T11:52:17.507Z,16.90
2023-04-09T11:54:49.736Z,17.00
2023-04-09T11:57:16.941Z,17.00
2023-04-09T11:59:43.892Z,17.00
2023-04-09T12:02:10.960Z,16.90
2023-04-09T12:04:37.810Z,16.80
2023-04-09T12:07:09.671Z,16.90
2023-04-09T12:09:48.134Z,16.90
2023-04-09T12:12:20.038Z,16.50
2023-04-09T12:14:47.647Z,17.00
2023-04-09T12:17:14.398Z,17.20
2023-04-09T12:19:41.402Z,17.10
2023-04-09T12:22:08.093Z,16.40
2023-04-09T12:24:34.805Z,16.70
2023-04-09T12:27:01.578Z,16.70
2023-04-09T12:29:29.869Z,16.80
2023-04-09T12:31:56.795Z,16.50
2023-04-09T12:34:23.627Z,16.70
2023-04-09T12:36:50.274Z,16.40
2023-04-09T12:39:16.912Z,16.70
2023-04-09T12:41:44.392Z,16.60
2023-04-09T12:44:11.025Z,16.70
2023-04-09T12:46:37.979Z,16.80
2023-04-09T12:49:05.515Z,16.60
2023-04-09T12:51:32.760Z,16.70
2023-04-09T12:53:59.437Z,16.80
2023-04-09T12:56:27.363Z,16.70
2023-04-09T12:58:55.122Z,16.50
2023-04-09T13:01:21.993Z,16.30
2023-04-09T13:03:48.887Z,16.40
2023-04-09T13:06:15.896Z,16.40
2023-04-09T13:08:42.580Z,16.40
2023-04-09T13:11:09.343Z,16.20
2023-04-09T13:13:35.939Z,16.10
2023-04-09T13:16:02.910Z,16.40
2023-04-09T13:18:29.527Z,16.50
2023-04-09T13:20:56.215Z,16.70
2023-04-09T13:23:22.878Z,16.90
2023-04-09T13:25:49.515Z,17.10
2023-04-09T13:28:16.323Z,17.20
2023-04-09T13:30:43.028Z,17.10
2023-04-09T13:33:09.848Z,16.90
2023-04-09T13:35:36.584Z,16.80
2023-04-09T13:38:03.247Z,16.60
2023-04-09T13:40:29.996Z,16.50
2023-04-09T13:42:56.656Z,16.70
2023-04-09T13:45:23.851Z,16.90
2023-04-09T13:47:50.948Z,17.10
2023-04-09T13:50:17.832Z,16.70
2023-04-09T13:52:44.591Z,16.70
2023-04-09T13:55:11.513Z,17.00
2023-04-09T13:57:38.254Z,17.20
2023-04-09T14:00:05.876Z,17.40
2023-04-09T14:02:32.904Z,17.50
2023-04-09T14:05:00.059Z,17.50
2023-04-09T14:07:26.695Z,17.30
2023-04-09T14:09:53.391Z,17.20
2023-04-09T14:12:20.265Z,16.90
2023-04-09T14:14:47.074Z,17.10
2023-04-09T14:17:13.790Z,17.10
2023-04-09T14:19:40.494Z,17.40
2023-04-09T14:22:08.779Z,17.40
2023-04-09T14:24:39.878Z,17.50
2023-04-09T14:27:08.137Z,17.70
2023-04-09T14:29:35.261Z,17.30
2023-04-09T14:32:02.086Z,17.50
2023-04-09T14:34:31.429Z,17.60
2023-04-09T14:36:58.418Z,17.60
2023-04-09T14:39:25.772Z,17.30
2023-04-09T14:41:52.487Z,17.00
2023-04-09T14:44:19.154Z,17.20
2023-04-09T14:46:46.072Z,17.20
2023-04-09T14:49:12.846Z,17.10
2023-04-09T14:51:39.517Z,17.30
2023-04-09T14:54:06.114Z,17.20
2023-04-09T14:56:32.799Z,17.00
2023-04-09T14:58:59.868Z,16.70
2023-04-09T15:01:27.590Z,16.50
2023-04-09T15:03:55.037Z,16.50
2023-04-09T15:06:21.934Z,16.30
2023-04-09T15:08:48.554Z,16.30
2023-04-09T15:11:16.611Z,16.20
2023-04-09T15:13:43.581Z,16.10
2023-04-09T15:16:10.442Z,16.10
2023-04-09T15:18:37.458Z,16.10
2023-04-09T15:21:04.339Z,16.20
2023-04-09T15:23:31.059Z,16.30
2023-04-09T15:25:57.785Z,16.20
2023-04-09T15:28:24.499Z,16.00
2023-04-09T15:30:51.360Z,15.80
2023-04-09T15:33:17.978Z,15.60
2023-04-09T15:35:44.679Z,15.50
2023-04-09T15:38:11.349Z,15.40
2023-04-09T15:40:40.724Z,15.30
2023-04-09T15:43:07.378Z,15.40
2023-04-09T15:45:34.114Z,15.40
2023-04-09T15:48:00.842Z,15.30
2023-04-09T15:50:27.553Z,15.50
2023-04-09T15:52:56.079Z,15.60
2023-04-09T15:55:26.789Z,15.60
2023-04-09T15:57:55.025Z,15.70
2023-04-09T16:00:22.170Z,15.60
2023-04-09T16:02:48.863Z,15.60
2023-04-09T16:05:15.835Z,15.60
2023-04-09T16:07:42.822Z,15.60
2023-04-09T16:10:09.914Z,15.50
2023-04-09T16:12:36.611Z,15.50
2023-04-09T16:15:03.529Z,15.40
2023-04-09T16:17:30.883Z,15.50
2023-04-09T16:19:57.764Z,15.50
2023-04-09T16:22:24.502Z,15.50
2023-04-09T16:24:51.128Z,15.40
2023-04-09T16:27:17.837Z,15.50
2023-04-09T16:29:44.561Z,15.40
2023-04-09T16:32:11.333Z,15.30
2023-04-09T16:34:37.999Z,15.20
2023-04-09T16:37:04.685Z,15.20
2023-04-09T16:39:31.531Z,15.10
2023-04-09T16:41:58.270Z,15.10
2023-04-09T16:44:25.851Z,15.10
2023-04-09T16:46:52.585Z,15.10
2023-04-09T16:49:19.225Z,14.90
2023-04-09T16:51:46.118Z,14.90
2023-04-09T16:54:12.901Z,14.90
2023-04-09T16:56:39.564Z,14.70
2023-04-09T16:59:06.424Z,14.70
2023-04-09T17:01:33.210Z,14.70
2023-04-09T17:04:00.642Z,14.70
2023-04-09T17:06:27.467Z,14.60
2023-04-09T17:08:54.318Z,14.60
2023-04-09T17:11:23.415Z,14.50
2023-04-09T17:13:50.090Z,14.50
2023-04-09T17:16:18.012Z,14.50
2023-04-09T17:18:45.299Z,14.40
2023-04-09T17:21:12.392Z,14.40
2023-04-09T17:23:39.076Z,14.40
2023-04-09T17:26:06.014Z,14.30
2023-04-09T17:28:32.676Z,14.30
2023-04-09T17:30:59.398Z,14.30
2023-04-09T17:33:26.322Z,14.20
2023-04-09T17:35:53.025Z,14.10
2023-04-09T17:38:21.594Z,14.10
2023-04-09T17:40:48.555Z,14.00
2023-04-09T17:43:15.576Z,14.00
2023-04-09T17:45:42.375Z,14.00
2023-04-09T17:48:09.456Z,13.90
2023-04-09T17:50:39.245Z,13.80
2023-04-09T17:53:05.864Z,13.70
2023-04-09T17:55:32.555Z,13.60
2023-04-09T17:57:59.198Z,13.60
2023-04-09T18:00:26.238Z,13.50
2023-04-09T18:02:53.859Z,13.40
2023-04-09T18:05:22.122Z,13.40
2023-04-09T18:07:48.908Z,13.30
2023-04-09T18:10:15.844Z,13.30
2023-04-09T18:12:42.588Z,13.30
2023-04-09T18:15:09.686Z,13.20
2023-04-09T18:17:36.434Z,13.20
2023-04-09T18:20:03.255Z,13.20
2023-04-09T18:22:29.925Z,13.20
2023-04-09T18:24:56.625Z,13.20
2023-04-09T18:27:23.447Z,13.10
2023-04-09T18:29:50.471Z,13.10
2023-04-09T18:32:19.490Z,13.10
2023-04-09T18:34:47.146Z,13.00
2023-04-09T18:37:14.825Z,12.90
2023-04-09T18:39:41.607Z,12.80
2023-04-09T18:42:08.287Z,12.80
2023-04-09T18:44:37.174Z,12.70
2023-04-09T18:47:05.643Z,12.70
2023-04-09T18:49:33.379Z,12.60
2023-04-09T18:52:00.413Z,12.60
2023-04-09T18:54:27.633Z,12.60
2023-04-09T18:56:54.438Z,12.60
2023-04-09T18:59:21.716Z,12.40
2023-04-09T19:01:48.559Z,12.50
2023-04-09T19:04:15.498Z,12.40
2023-04-09T19:06:44.583Z,12.30
2023-04-09T19:09:11.199Z,12.30
2023-04-09T19:11:37.864Z,12.30
2023-04-09T19:14:04.473Z,12.30
2023-04-09T19:16:31.440Z,12.20
2023-04-09T19:18:58.294Z,12.10
2023-04-09T19:21:25.005Z,12.10
2023-04-09T19:23:51.694Z,12.10
2023-04-09T19:26:18.386Z,12.10
2023-04-09T19:28:45.003Z,12.00
2023-04-09T19:31:14.382Z,12.00
2023-04-09T19:33:41.191Z,11.90
2023-04-09T19:36:08.159Z,11.70
2023-04-09T19:38:34.885Z,11.80
2023-04-09T19:41:01.571Z,11.70
2023-04-09T19:43:28.292Z,11.70
2023-04-09T19:45:54.975Z,11.70
2023-04-09T19:48:21.638Z,11.70
2023-04-09T19:50:48.847Z,11.60
2023-04-09T19:53:15.604Z,11.50
2023-04-09T19:55:42.270Z,11.50
2023-04-09T19:58:09.268Z,11.50
2023-04-09T20:00:35.986Z,11.50
2023-04-09T20:03:03.068Z,11.50
2023-04-09T20:05:30.019Z,11.40
2023-04-09T20:07:56.679Z,11.40
2023-04-09T20:10:23.432Z,11.40
2023-04-09T20:12:50.655Z,11.40
2023-04-09T20:15:20.067Z,11.30
2023-04-09T20:17:50.799Z,11.30
2023-04-09T20:20:20.665Z,11.20
2023-04-09T20:22:55.685Z,11.20
2023-04-09T20:25:24.098Z,11.20
2023-04-09T20:27:54.400Z,11.20
2023-04-09T20:30:21.382Z,11.10
2023-04-09T20:32:49.025Z,11.10
2023-04-09T20:35:16.208Z,11.00
2023-04-09T20:37:43.084Z,11.00
2023-04-09T20:40:11.233Z,11.00
2023-04-09T20:42:40.808Z,10.90
2023-04-09T20:45:08.530Z,10.90
2023-04-09T20:47:35.494Z,10.90
2023-04-09T20:50:03.192Z,10.80
2023-04-09T20:52:29.871Z,10.80
2023-04-09T20:54:57.498Z,10.70
2023-04-09T20:57:24.488Z,10.70
2023-04-09T20:59:52.794Z,10.50
2023-04-09T21:02:19.553Z,10.50
2023-04-09T21:04:46.328Z,10.50
2023-04-09T21:07:13.334Z,10.50
2023-04-09T21:09:40.361Z,10.40
2023-04-09T21:12:07.183Z,10.40
2023-04-09T21:14:33.854Z,10.40
2023-04-09T21:17:00.666Z,10.30
2023-04-09T21:19:27.342Z,10.30
2023-04-09T21:21:54.215Z,10.20
2023-04-09T21:24:20.848Z,10.20
2023-04-09T21:26:51.153Z,10.10
2023-04-09T21:29:20.690Z,10.10
2023-04-09T21:31:48.411Z,10.20
2023-04-09T21:34:15.878Z,10.10
2023-04-09T21:36:44.831Z,10.00
2023-04-09T21:39:12.067Z,10.10
2023-04-09T21:41:39.070Z,10.10
2023-04-09T21:44:08.318Z,10.00
2023-04-09T21:46:36.944Z,10.00
2023-04-09T21:49:04.465Z,10.00
2023-04-09T21:51:31.992Z,10.00
2023-04-09T21:54:06.153Z,10.00
2023-04-09T21:56:33.809Z,9.90
2023-04-09T21:59:03.299Z,9.80
2023-04-09T22:01:31.247Z,9.80
2023-04-09T22:03:59.481Z,9.80
2023-04-09T22:06:27.315Z,9.70
2023-04-09T22:08:56.650Z,9.70
2023-04-09T22:11:26.636Z,9.70
2023-04-09T22:13:53.718Z,9.70
2023-04-09T22:16:20.548Z,9.70
2023-04-09T22:18:47.307Z,9.60
2023-04-09T22:21:17.393Z,9.50
2023-04-09T22:23:44.213Z,9.50
2023-04-09T22:26:11.051Z,9.40
2023-04-09T22:28:38.504Z,9.40
2023-04-09T22:31:05.872Z,9.50
2023-04-09T22:33:32.799Z,9.40
2023-04-09T22:35:59.694Z,9.40
2023-04-09T22:38:26.558Z,9.40
2023-04-09T22:40:53.252Z,9.40
2023-04-09T22:43:19.869Z,9.30
2023-04-09T22:45:54.361Z,9.30
2023-04-09T22:48:21.867Z,9.30
2023-04-09T22:50:49.429Z,9.30
2023-04-09T22:53:19.095Z,9.20
2023-04-09T22:55:54.259Z,9.20
2023-04-09T22:58:21.116Z,9.20
2023-04-09T23:00:48.165Z,9.20
2023-04-09T23:03:15.167Z,9.10
2023-04-09T23:05:42.284Z,9.10
2023-04-09T23:08:09.714Z,9.10
2023-04-09T23:10:36.462Z,9.00
2023-04-09T23:13:03.129Z,8.90
2023-04-09T23:15:29.818Z,8.90
2023-04-09T23:17:56.756Z,8.80
2023-04-09T23:20:23.673Z,8.80
2023-04-09T23:22:50.528Z,8.80
2023-04-09T23:25:17.494Z,8.70
2023-04-09T23:27:44.597Z,8.70
2023-04-09T23:30:16.471Z,8.70
2023-04-09T23:32:46.210Z,8.60
2023-04-09T23:35:13.595Z,8.60
2023-04-09T23:37:41.475Z,8.60
2023-04-09T23:40:09.031Z,8.60
2023-04-09T23:42:35.826Z,8.60
2023-04-09T23:45:04.381Z,8.60
2023-04-09T23:47:33.514Z,8.70
2023-04-09T23:50:08.190Z,8.70
2023-04-09T23:52:37.243Z,8.70
2023-04-09T23:55:08.562Z,8.70
2023-04-09T23:57:35.562Z,8.70
